sensor_id;sensor_type;location;lat;lon;timestamp;pressure;altitude;pressure_sealevel;temperature;humidity
10668;BME280;5382;42.136;24.796;2023-03-18T00:00:17;100511.94;;;5.09;100.00
10668;BME280;5382;42.136;24.796;2023-03-18T00:02:46;100511.97;;;5.07;100.00
10668;BME280;5382;42.136;24.796;2023-03-18T00:05:14;100513.06;;;5.01;100.00
10668;BME280;5382;42.136;24.796;2023-03-18T00:07:41;100506.34;;;4.94;100.00
10668;BME280;5382;42.136;24.796;2023-03-18T00:10:09;100513.88;;;5.03;100.00
10668;BME280;5382;42.136;24.796;2023-03-18T00:12:37;100502.13;;;5.14;100.00
10668;BME280;5382;42.136;24.796;2023-03-18T00:15:08;100499.22;;;5.20;100.00
10668;BME280;5382;42.136;24.796;2023-03-18T00:17:35;100478.06;;;5.24;100.00
10668;BME280;5382;42.136;24.796;2023-03-18T00:20:03;100500.00;;;5.44;100.00
10668;BME280;5382;42.136;24.796;2023-03-18T00:22:32;100487.94;;;5.40;100.00
10668;BME280;5382;42.136;24.796;2023-03-18T00:24:58;100489.59;;;5.42;100.00
10668;BME280;5382;42.136;24.796;2023-03-18T00:27:26;100498.97;;;5.48;100.00
10668;BME280;5382;42.136;24.796;2023-03-18T00:29:54;100489.78;;;5.58;100.00
10668;BME280;5382;42.136;24.796;2023-03-18T00:32:24;100477.25;;;5.65;100.00
10668;BME280;5382;42.136;24.796;2023-03-18T00:34:52;100470.44;;;5.61;100.00
10668;BME280;5382;42.136;24.796;2023-03-18T00:37:19;100474.75;;;5.62;100.00
10668;BME280;5382;42.136;24.796;2023-03-18T00:39:55;100477.25;;;5.65;100.00
10668;BME280;5382;42.136;24.796;2023-03-18T00:42:22;100455.06;;;5.52;100.00
10668;BME280;5382;42.136;24.796;2023-03-18T00:44:50;100475.38;;;5.68;100.00
10668;BME280;5382;42.136;24.796;2023-03-18T00:47:16;100475.28;;;5.70;100.00
10668;BME280;5382;42.136;24.796;2023-03-18T00:49:45;100470.69;;;5.75;100.00
10668;BME280;5382;42.136;24.796;2023-03-18T00:52:12;100467.88;;;5.80;100.00
10668;BME280;5382;42.136;24.796;2023-03-18T00:54:39;100468.53;;;5.85;100.00
10668;BME280;5382;42.136;24.796;2023-03-18T00:57:06;100463.69;;;5.76;100.00
10668;BME280;5382;42.136;24.796;2023-03-18T00:59:33;100459.66;;;5.67;100.00
10668;BME280;5382;42.136;24.796;2023-03-18T01:01:59;100456.34;;;5.84;100.00
10668;BME280;5382;42.136;24.796;2023-03-18T01:04:26;100462.84;;;5.96;100.00
10668;BME280;5382;42.136;24.796;2023-03-18T01:06:55;100463.78;;;5.93;100.00
10668;BME280;5382;42.136;24.796;2023-03-18T01:09:22;100468.75;;;6.01;100.00
10668;BME280;5382;42.136;24.796;2023-03-18T01:11:49;100464.00;;;6.09;100.00
10668;BME280;5382;42.136;24.796;2023-03-18T01:14:17;100470.78;;;6.15;100.00
10668;BME280;5382;42.136;24.796;2023-03-18T01:16:44;100465.25;;;6.21;100.00
10668;BME280;5382;42.136;24.796;2023-03-18T01:19:12;100459.84;;;6.24;100.00
10668;BME280;5382;42.136;24.796;2023-03-18T01:21:40;100457.72;;;6.32;100.00
10668;BME280;5382;42.136;24.796;2023-03-18T01:24:09;100460.00;;;6.21;100.00
10668;BME280;5382;42.136;24.796;2023-03-18T01:26:36;100459.34;;;6.16;100.00
10668;BME280;5382;42.136;24.796;2023-03-18T01:29:02;100451.97;;;6.24;100.00
10668;BME280;5382;42.136;24.796;2023-03-18T01:31:30;100454.25;;;6.31;100.00
10668;BME280;5382;42.136;24.796;2023-03-18T01:33:59;100456.72;;;6.34;100.00
10668;BME280;5382;42.136;24.796;2023-03-18T01:36:26;100459.75;;;6.46;100.00
10668;BME280;5382;42.136;24.796;2023-03-18T01:38:54;100458.31;;;6.39;100.00
10668;BME280;5382;42.136;24.796;2023-03-18T01:41:24;100454.88;;;6.37;100.00
10668;BME280;5382;42.136;24.796;2023-03-18T01:43:51;100453.41;;;6.31;100.00
10668;BME280;5382;42.136;24.796;2023-03-18T01:46:37;100445.31;;;6.36;100.00
10668;BME280;5382;42.136;24.796;2023-03-18T01:49:08;100441.09;;;6.31;100.00
10668;BME280;5382;42.136;24.796;2023-03-18T01:51:37;100445.31;;;6.36;100.00
10668;BME280;5382;42.136;24.796;2023-03-18T01:54:06;100407.84;;;6.11;100.00
10668;BME280;5382;42.136;24.796;2023-03-18T01:56:36;100443.03;;;6.28;100.00
10668;BME280;5382;42.136;24.796;2023-03-18T01:59:05;100447.28;;;6.30;100.00
10668;BME280;5382;42.136;24.796;2023-03-18T02:01:39;100452.81;;;6.24;100.00
10668;BME280;5382;42.136;24.796;2023-03-18T02:04:08;100448.28;;;6.28;100.00
10668;BME280;5382;42.136;24.796;2023-03-18T02:06:36;100435.78;;;6.33;100.00
10668;BME280;5382;42.136;24.796;2023-03-18T02:09:03;100434.66;;;6.39;100.00
10668;BME280;5382;42.136;24.796;2023-03-18T02:11:30;100440.47;;;6.45;100.00
10668;BME280;5382;42.136;24.796;2023-03-18T02:14:00;100435.59;;;6.38;100.00
10668;BME280;5382;42.136;24.796;2023-03-18T02:16:33;100439.56;;;6.46;100.00
10668;BME280;5382;42.136;24.796;2023-03-18T02:19:15;100442.47;;;6.40;100.00
10668;BME280;5382;42.136;24.796;2023-03-18T02:21:50;100440.69;;;6.41;100.00
10668;BME280;5382;42.136;24.796;2023-03-18T02:24:43;100446.22;;;6.34;100.00
10668;BME280;5382;42.136;24.796;2023-03-18T02:27:18;100446.94;;;6.38;100.00
10668;BME280;5382;42.136;24.796;2023-03-18T02:29:45;100443.31;;;6.41;100.00
10668;BME280;5382;42.136;24.796;2023-03-18T02:32:14;100450.13;;;6.26;100.00
10668;BME280;5382;42.136;24.796;2023-03-18T02:34:42;100441.59;;;6.21;100.00
10668;BME280;5382;42.136;24.796;2023-03-18T02:37:10;100445.66;;;6.28;100.00
10668;BME280;5382;42.136;24.796;2023-03-18T02:39:37;100442.69;;;6.36;100.00
10668;BME280;5382;42.136;24.796;2023-03-18T02:42:04;100444.38;;;6.37;100.00
10668;BME280;5382;42.136;24.796;2023-03-18T02:44:37;100436.97;;;6.26;100.00
10668;BME280;5382;42.136;24.796;2023-03-18T02:47:08;100442.59;;;6.18;100.00
10668;BME280;5382;42.136;24.796;2023-03-18T02:49:37;100429.50;;;6.17;100.00
10668;BME280;5382;42.136;24.796;2023-03-18T02:52:04;100428.81;;;5.93;100.00
10668;BME280;5382;42.136;24.796;2023-03-18T02:54:31;100451.75;;;6.09;100.00
10668;BME280;5382;42.136;24.796;2023-03-18T02:56:59;100438.13;;;6.20;100.00
10668;BME280;5382;42.136;24.796;2023-03-18T02:59:27;100445.22;;;6.18;100.00
10668;BME280;5382;42.136;24.796;2023-03-18T03:01:55;100445.06;;;6.21;100.00
10668;BME280;5382;42.136;24.796;2023-03-18T03:04:24;100452.06;;;6.22;100.00
10668;BME280;5382;42.136;24.796;2023-03-18T03:06:52;100451.41;;;6.17;100.00
10668;BME280;5382;42.136;24.796;2023-03-18T03:09:19;100449.19;;;6.27;100.00
10668;BME280;5382;42.136;24.796;2023-03-18T03:11:47;100458.50;;;6.15;100.00
10668;BME280;5382;42.136;24.796;2023-03-18T03:14:14;100454.16;;;6.14;100.00
10668;BME280;5382;42.136;24.796;2023-03-18T03:16:42;100450.16;;;6.05;100.00
10668;BME280;5382;42.136;24.796;2023-03-18T03:19:10;100453.13;;;5.98;100.00
10668;BME280;5382;42.136;24.796;2023-03-18T03:21:37;100440.28;;;5.90;100.00
10668;BME280;5382;42.136;24.796;2023-03-18T03:24:06;100460.66;;;5.85;100.00
10668;BME280;5382;42.136;24.796;2023-03-18T03:26:33;100450.84;;;5.88;100.00
10668;BME280;5382;42.136;24.796;2023-03-18T03:29:00;100439.84;;;5.80;100.00
10668;BME280;5382;42.136;24.796;2023-03-18T03:31:28;100454.22;;;5.92;100.00
10668;BME280;5382;42.136;24.796;2023-03-18T03:33:56;100450.81;;;5.90;100.00
10668;BME280;5382;42.136;24.796;2023-03-18T03:36:24;100460.31;;;5.93;100.00
10668;BME280;5382;42.136;24.796;2023-03-18T03:38:51;100437.88;;;5.85;100.00
10668;BME280;5382;42.136;24.796;2023-03-18T03:41:18;100458.63;;;5.92;100.00
10668;BME280;5382;42.136;24.796;2023-03-18T03:43:45;100445.75;;;5.85;100.00
10668;BME280;5382;42.136;24.796;2023-03-18T03:46:12;100469.19;;;5.90;100.00
10668;BME280;5382;42.136;24.796;2023-03-18T03:48:39;100460.50;;;5.88;100.00
10668;BME280;5382;42.136;24.796;2023-03-18T03:51:06;100463.22;;;5.86;100.00
10668;BME280;5382;42.136;24.796;2023-03-18T03:53:35;100466.06;;;6.02;100.00
10668;BME280;5382;42.136;24.796;2023-03-18T03:56:02;100468.75;;;6.01;100.00
10668;BME280;5382;42.136;24.796;2023-03-18T03:58:29;100459.09;;;6.01;100.00
10668;BME280;5382;42.136;24.796;2023-03-18T04:00:56;100457.09;;;6.06;100.00
10668;BME280;5382;42.136;24.796;2023-03-18T04:03:23;100463.34;;;6.04;100.00
10668;BME280;5382;42.136;24.796;2023-03-18T04:05:50;100469.25;;;6.09;100.00
10668;BME280;5382;42.136;24.796;2023-03-18T04:08:17;100453.91;;;6.00;100.00
10668;BME280;5382;42.136;24.796;2023-03-18T04:10:45;100465.59;;;6.13;100.00
10668;BME280;5382;42.136;24.796;2023-03-18T04:13:13;100466.78;;;6.06;100.00
10668;BME280;5382;42.136;24.796;2023-03-18T04:15:40;100455.91;;;5.95;100.00
10668;BME280;5382;42.136;24.796;2023-03-18T04:18:07;100467.06;;;6.00;100.00
10668;BME280;5382;42.136;24.796;2023-03-18T04:20:35;100467.09;;;5.98;100.00
10668;BME280;5382;42.136;24.796;2023-03-18T04:23:02;100460.94;;;5.99;100.00
10668;BME280;5382;42.136;24.796;2023-03-18T04:25:29;100466.91;;;6.03;100.00
10668;BME280;5382;42.136;24.796;2023-03-18T04:27:58;100471.38;;;6.01;100.00
10668;BME280;5382;42.136;24.796;2023-03-18T04:30:25;100481.88;;;6.01;100.00
10668;BME280;5382;42.136;24.796;2023-03-18T04:32:53;100480.25;;;5.98;100.00
10668;BME280;5382;42.136;24.796;2023-03-18T04:35:20;100477.13;;;6.09;100.00
10668;BME280;5382;42.136;24.796;2023-03-18T04:37:47;100477.03;;;6.12;100.00
10668;BME280;5382;42.136;24.796;2023-03-18T04:40:15;100472.16;;;6.03;100.00
10668;BME280;5382;42.136;24.796;2023-03-18T04:42:42;100483.59;;;6.02;100.00
10668;BME280;5382;42.136;24.796;2023-03-18T04:45:11;100484.78;;;5.95;100.00
10668;BME280;5382;42.136;24.796;2023-03-18T04:47:38;100450.09;;;5.86;100.00
10668;BME280;5382;42.136;24.796;2023-03-18T04:50:07;100484.69;;;5.96;100.00
10668;BME280;5382;42.136;24.796;2023-03-18T04:52:35;100478.97;;;5.86;100.00
10668;BME280;5382;42.136;24.796;2023-03-18T04:55:02;100479.53;;;5.95;100.00
10668;BME280;5382;42.136;24.796;2023-03-18T04:57:29;100486.34;;;5.99;100.00
10668;BME280;5382;42.136;24.796;2023-03-18T04:59:56;100483.16;;;5.90;100.00
10668;BME280;5382;42.136;24.796;2023-03-18T05:02:24;100482.06;;;5.96;100.00
10668;BME280;5382;42.136;24.796;2023-03-18T05:04:51;100472.31;;;6.00;100.00
10668;BME280;5382;42.136;24.796;2023-03-18T05:07:18;100489.91;;;5.98;100.00
10668;BME280;5382;42.136;24.796;2023-03-18T05:09:46;100489.63;;;6.04;100.00
10668;BME280;5382;42.136;24.796;2023-03-18T05:12:13;100484.78;;;5.95;100.00
10668;BME280;5382;42.136;24.796;2023-03-18T05:14:41;100489.53;;;5.85;100.00
10668;BME280;5382;42.136;24.796;2023-03-18T05:17:08;100467.16;;;5.76;100.00
10668;BME280;5382;42.136;24.796;2023-03-18T05:19:42;100476.03;;;5.74;100.00
10668;BME280;5382;42.136;24.796;2023-03-18T05:22:10;100487.44;;;5.93;100.00
10668;BME280;5382;42.136;24.796;2023-03-18T05:24:37;100448.47;;;5.84;100.00
10668;BME280;5382;42.136;24.796;2023-03-18T05:27:04;100480.44;;;5.94;100.00
10668;BME280;5382;42.136;24.796;2023-03-18T05:29:31;100493.19;;;6.03;100.00
10668;BME280;5382;42.136;24.796;2023-03-18T05:31:58;100485.25;;;6.04;100.00
10668;BME280;5382;42.136;24.796;2023-03-18T05:34:24;100495.63;;;6.07;100.00
10668;BME280;5382;42.136;24.796;2023-03-18T05:36:53;100492.66;;;6.15;100.00
10668;BME280;5382;42.136;24.796;2023-03-18T05:39:20;100500.59;;;6.14;100.00
10668;BME280;5382;42.136;24.796;2023-03-18T05:41:47;100499.22;;;6.05;100.00
10668;BME280;5382;42.136;24.796;2023-03-18T05:44:13;100493.19;;;6.03;100.00
10668;BME280;5382;42.136;24.796;2023-03-18T05:46:41;100505.66;;;5.98;100.00
10668;BME280;5382;42.136;24.796;2023-03-18T05:49:08;100504.81;;;5.97;100.00
10668;BME280;5382;42.136;24.796;2023-03-18T05:51:35;100506.84;;;6.11;100.00
10668;BME280;5382;42.136;24.796;2023-03-18T05:54:04;100505.19;;;6.08;100.00
10668;BME280;5382;42.136;24.796;2023-03-18T05:56:31;100511.28;;;6.09;100.00
10668;BME280;5382;42.136;24.796;2023-03-18T05:58:58;100501.19;;;6.20;100.00
10668;BME280;5382;42.136;24.796;2023-03-18T06:01:25;100506.63;;;6.16;100.00
10668;BME280;5382;42.136;24.796;2023-03-18T06:03:52;100503.03;;;6.18;100.00
10668;BME280;5382;42.136;24.796;2023-03-18T06:06:20;100504.53;;;6.24;100.00
10668;BME280;5382;42.136;24.796;2023-03-18T06:08:47;100501.63;;;6.30;100.00
10668;BME280;5382;42.136;24.796;2023-03-18T06:11:16;100503.78;;;6.41;100.00
10668;BME280;5382;42.136;24.796;2023-03-18T06:13:43;100496.09;;;6.36;100.00
10668;BME280;5382;42.136;24.796;2023-03-18T06:16:10;100501.72;;;6.47;100.00
10668;BME280;5382;42.136;24.796;2023-03-18T06:18:37;100497.94;;;6.53;100.00
10668;BME280;5382;42.136;24.796;2023-03-18T06:21:07;100504.72;;;6.59;100.00
10668;BME280;5382;42.136;24.796;2023-03-18T06:23:34;100510.97;;;6.56;100.00
10668;BME280;5382;42.136;24.796;2023-03-18T06:26:01;100488.00;;;6.60;100.00
10668;BME280;5382;42.136;24.796;2023-03-18T06:28:30;100503.34;;;7.07;100.00
10668;BME280;5382;42.136;24.796;2023-03-18T06:30:57;100491.50;;;7.34;100.00
10668;BME280;5382;42.136;24.796;2023-03-18T06:33:24;100496.56;;;7.20;100.00
10668;BME280;5382;42.136;24.796;2023-03-18T06:35:51;100498.19;;;7.22;100.00
10668;BME280;5382;42.136;24.796;2023-03-18T06:38:19;100497.22;;;7.06;100.00
10668;BME280;5382;42.136;24.796;2023-03-18T06:40:46;100495.13;;;6.95;100.00
10668;BME280;5382;42.136;24.796;2023-03-18T06:43:13;100486.31;;;6.77;100.00
10668;BME280;5382;42.136;24.796;2023-03-18T06:45:41;100495.53;;;6.86;100.00
10668;BME280;5382;42.136;24.796;2023-03-18T06:48:08;100492.13;;;6.65;100.00
10668;BME280;5382;42.136;24.796;2023-03-18T06:50:36;100483.84;;;6.74;100.00
10668;BME280;5382;42.136;24.796;2023-03-18T06:53:04;100480.63;;;6.87;100.00
10668;BME280;5382;42.136;24.796;2023-03-18T06:55:30;100473.59;;;6.87;100.00
10668;BME280;5382;42.136;24.796;2023-03-18T06:57:59;100491.56;;;6.96;100.00
10668;BME280;5382;42.136;24.796;2023-03-18T07:00:27;100488.88;;;6.98;100.00
10668;BME280;5382;42.136;24.796;2023-03-18T07:02:55;100483.91;;;6.92;100.00
10668;BME280;5382;42.136;24.796;2023-03-18T07:05:22;100490.91;;;6.91;100.00
10668;BME280;5382;42.136;24.796;2023-03-18T07:07:49;100478.44;;;6.59;100.00
10668;BME280;5382;42.136;24.796;2023-03-18T07:10:19;100490.00;;;6.73;100.00
10668;BME280;5382;42.136;24.796;2023-03-18T07:12:46;100487.78;;;6.83;100.00
10668;BME280;5382;42.136;24.796;2023-03-18T07:15:13;100492.44;;;6.97;100.00
10668;BME280;5382;42.136;24.796;2023-03-18T07:17:40;100466.88;;;6.99;100.00
10668;BME280;5382;42.136;24.796;2023-03-18T07:20:10;100496.69;;;7.36;100.00
10668;BME280;5382;42.136;24.796;2023-03-18T07:22:37;100485.47;;;7.50;100.00
10668;BME280;5382;42.136;24.796;2023-03-18T07:25:04;100484.09;;;7.77;100.00
10668;BME280;5382;42.136;24.796;2023-03-18T07:27:32;100479.91;;;7.73;100.00
10668;BME280;5382;42.136;24.796;2023-03-18T07:29:59;100473.78;;;7.73;100.00
10668;BME280;5382;42.136;24.796;2023-03-18T07:32:26;100467.97;;;7.83;100.00
10668;BME280;5382;42.136;24.796;2023-03-18T07:34:54;100467.78;;;8.04;100.00
10668;BME280;5382;42.136;24.796;2023-03-18T07:37:23;100475.06;;;8.16;100.00
10668;BME280;5382;42.136;24.796;2023-03-18T07:39:49;100470.22;;;8.24;100.00
10668;BME280;5382;42.136;24.796;2023-03-18T07:42:17;100475.94;;;8.33;100.00
10668;BME280;5382;42.136;24.796;2023-03-18T07:44:44;100476.72;;;8.35;100.00
10668;BME280;5382;42.136;24.796;2023-03-18T07:47:11;100478.22;;;8.39;99.53
10668;BME280;5382;42.136;24.796;2023-03-18T07:49:40;100472.78;;;8.59;98.97
10668;BME280;5382;42.136;24.796;2023-03-18T07:52:07;100478.31;;;8.55;100.00
10668;BME280;5382;42.136;24.796;2023-03-18T07:54:36;100482.00;;;8.68;100.00
10668;BME280;5382;42.136;24.796;2023-03-18T07:57:03;100475.88;;;8.83;100.00
10668;BME280;5382;42.136;24.796;2023-03-18T07:59:31;100479.25;;;8.85;97.66
10668;BME280;5382;42.136;24.796;2023-03-18T08:01:58;100474.06;;;9.00;96.63
10668;BME280;5382;42.136;24.796;2023-03-18T08:04:25;100481.31;;;9.12;94.05
10668;BME280;5382;42.136;24.796;2023-03-18T08:06:53;100483.94;;;9.12;92.44
10668;BME280;5382;42.136;24.796;2023-03-18T08:09:20;100488.13;;;9.00;91.33
10668;BME280;5382;42.136;24.796;2023-03-18T08:11:48;100499.03;;;8.78;94.06
10668;BME280;5382;42.136;24.796;2023-03-18T08:14:15;100494.03;;;8.56;95.35
10668;BME280;5382;42.136;24.796;2023-03-18T08:16:42;100504.56;;;8.40;100.00
10668;BME280;5382;42.136;24.796;2023-03-18T08:19:08;100491.75;;;8.33;100.00
10668;BME280;5382;42.136;24.796;2023-03-18T08:21:36;100493.25;;;8.21;100.00
10668;BME280;5382;42.136;24.796;2023-03-18T08:24:04;100494.59;;;8.12;100.00
10668;BME280;5382;42.136;24.796;2023-03-18T08:26:31;100479.63;;;8.13;100.00
10668;BME280;5382;42.136;24.796;2023-03-18T08:29:00;100492.22;;;8.23;100.00
10668;BME280;5382;42.136;24.796;2023-03-18T08:31:27;100495.47;;;8.28;100.00
10668;BME280;5382;42.136;24.796;2023-03-18T08:33:53;100501.34;;;8.34;100.00
10668;BME280;5382;42.136;24.796;2023-03-18T08:36:21;100506.47;;;8.54;100.00
10668;BME280;5382;42.136;24.796;2023-03-18T08:38:49;100494.25;;;8.69;100.00
10668;BME280;5382;42.136;24.796;2023-03-18T08:41:16;100500.88;;;8.76;100.00
10668;BME280;5382;42.136;24.796;2023-03-18T08:43:43;100503.00;;;8.69;96.22
10668;BME280;5382;42.136;24.796;2023-03-18T08:46:12;100497.81;;;8.68;98.32
10668;BME280;5382;42.136;24.796;2023-03-18T08:48:40;100515.44;;;8.67;100.00
10668;BME280;5382;42.136;24.796;2023-03-18T08:51:07;100502.59;;;8.77;97.34
10668;BME280;5382;42.136;24.796;2023-03-18T08:53:35;100502.16;;;8.85;97.62
10668;BME280;5382;42.136;24.796;2023-03-18T08:56:02;100514.63;;;8.99;94.82
10668;BME280;5382;42.136;24.796;2023-03-18T08:58:30;100509.66;;;9.08;92.70
10668;BME280;5382;42.136;24.796;2023-03-18T09:00:58;100519.19;;;9.11;90.16
10668;BME280;5382;42.136;24.796;2023-03-18T09:03:28;100509.75;;;9.07;91.18
10668;BME280;5382;42.136;24.796;2023-03-18T09:05:55;100508.13;;;9.04;89.80
10668;BME280;5382;42.136;24.796;2023-03-18T09:08:23;100519.03;;;9.14;88.44
10668;BME280;5382;42.136;24.796;2023-03-18T09:10:50;100512.22;;;9.10;88.17
10668;BME280;5382;42.136;24.796;2023-03-18T09:13:18;100526.69;;;9.03;89.13
10668;BME280;5382;42.136;24.796;2023-03-18T09:15:45;100525.41;;;9.10;89.09
10668;BME280;5382;42.136;24.796;2023-03-18T09:18:12;100526.19;;;9.28;87.69
10668;BME280;5382;42.136;24.796;2023-03-18T09:20:41;100530.63;;;9.27;86.92
10668;BME280;5382;42.136;24.796;2023-03-18T09:23:11;100531.03;;;9.35;86.79
10668;BME280;5382;42.136;24.796;2023-03-18T09:25:38;100519.94;;;9.29;83.98
10668;BME280;5382;42.136;24.796;2023-03-18T09:28:07;100535.53;;;9.33;84.89
10668;BME280;5382;42.136;24.796;2023-03-18T09:30:34;100526.16;;;9.44;86.01
10668;BME280;5382;42.136;24.796;2023-03-18T09:33:02;100534.66;;;9.49;87.77
10668;BME280;5382;42.136;24.796;2023-03-18T09:35:30;100539.94;;;9.49;88.17
10668;BME280;5382;42.136;24.796;2023-03-18T09:37:58;100536.63;;;9.61;87.52
10668;BME280;5382;42.136;24.796;2023-03-18T09:40:27;100537.19;;;9.66;87.20
10668;BME280;5382;42.136;24.796;2023-03-18T09:43:04;100532.97;;;9.78;87.47
10668;BME280;5382;42.136;24.796;2023-03-18T09:45:41;100544.50;;;9.77;85.65
10668;BME280;5382;42.136;24.796;2023-03-18T09:48:40;100551.88;;;9.56;88.78
10668;BME280;5382;42.136;24.796;2023-03-18T09:51:20;100547.47;;;9.25;90.74
10668;BME280;5382;42.136;24.796;2023-03-18T09:53:57;100557.09;;;9.42;89.05
10668;BME280;5382;42.136;24.796;2023-03-18T09:56:27;100556.41;;;9.54;86.22
10668;BME280;5382;42.136;24.796;2023-03-18T09:58:58;100555.47;;;9.39;92.06
10668;BME280;5382;42.136;24.796;2023-03-18T10:01:29;100511.97;;;9.14;91.01
10668;BME280;5382;42.136;24.796;2023-03-18T10:04:02;100553.00;;;9.20;93.10
10668;BME280;5382;42.136;24.796;2023-03-18T10:06:32;100555.91;;;9.00;96.33
10668;BME280;5382;42.136;24.796;2023-03-18T10:09:07;100560.41;;;8.98;97.20
10668;BME280;5382;42.136;24.796;2023-03-18T10:11:38;100558.72;;;8.97;99.69
10668;BME280;5382;42.136;24.796;2023-03-18T10:14:18;100531.53;;;8.79;100.00
10668;BME280;5382;42.136;24.796;2023-03-18T10:17:02;100541.50;;;8.89;99.49
10668;BME280;5382;42.136;24.796;2023-03-18T10:19:32;100553.97;;;9.19;97.17
10668;BME280;5382;42.136;24.796;2023-03-18T10:22:10;100565.09;;;8.92;96.13
10668;BME280;5382;42.136;24.796;2023-03-18T10:24:49;100572.94;;;9.10;95.71
10668;BME280;5382;42.136;24.796;2023-03-18T10:27:23;100568.78;;;9.22;95.33
10668;BME280;5382;42.136;24.796;2023-03-18T10:29:56;100564.09;;;9.27;93.76
10668;BME280;5382;42.136;24.796;2023-03-18T10:32:35;100560.50;;;9.44;91.93
10668;BME280;5382;42.136;24.796;2023-03-18T10:35:14;100566.28;;;9.50;92.05
10668;BME280;5382;42.136;24.796;2023-03-18T10:37:50;100566.59;;;9.60;89.68
10668;BME280;5382;42.136;24.796;2023-03-18T10:40:19;100565.38;;;9.81;87.41
10668;BME280;5382;42.136;24.796;2023-03-18T10:42:47;100560.38;;;9.91;90.38
10668;BME280;5382;42.136;24.796;2023-03-18T10:45:21;100564.16;;;9.87;91.56
10668;BME280;5382;42.136;24.796;2023-03-18T10:47:55;100554.97;;;10.09;86.63
10668;BME280;5382;42.136;24.796;2023-03-18T10:50:30;100555.91;;;10.08;87.55
10668;BME280;5382;42.136;24.796;2023-03-18T10:53:04;100558.31;;;10.12;88.06
10668;BME280;5382;42.136;24.796;2023-03-18T10:55:38;100557.22;;;10.31;88.51
10668;BME280;5382;42.136;24.796;2023-03-18T10:58:14;100556.28;;;10.32;83.68
10668;BME280;5382;42.136;24.796;2023-03-18T11:00:42;100556.09;;;10.49;80.71
10668;BME280;5382;42.136;24.796;2023-03-18T11:03:18;100552.59;;;10.63;78.94
10668;BME280;5382;42.136;24.796;2023-03-18T11:05:48;100556.00;;;10.51;72.41
10668;BME280;5382;42.136;24.796;2023-03-18T11:08:30;100556.28;;;10.32;70.95
10668;BME280;5382;42.136;24.796;2023-03-18T11:11:25;100554.88;;;9.80;76.52
10668;BME280;5382;42.136;24.796;2023-03-18T11:13:54;100553.06;;;9.66;82.67
10668;BME280;5382;42.136;24.796;2023-03-18T11:16:25;100548.50;;;9.84;78.91
10668;BME280;5382;42.136;24.796;2023-03-18T11:18:54;100551.22;;;9.82;76.79
10668;BME280;5382;42.136;24.796;2023-03-18T11:21:22;100542.19;;;9.87;78.05
10668;BME280;5382;42.136;24.796;2023-03-18T11:23:54;100549.78;;;10.07;76.88
10668;BME280;5382;42.136;24.796;2023-03-18T11:26:48;100546.66;;;10.31;73.67
10668;BME280;5382;42.136;24.796;2023-03-18T11:29:21;100540.44;;;10.16;71.94
10668;BME280;5382;42.136;24.796;2023-03-18T11:31:51;100538.59;;;10.32;70.71
10668;BME280;5382;42.136;24.796;2023-03-18T11:34:19;100536.00;;;10.16;69.55
10668;BME280;5382;42.136;24.796;2023-03-18T11:36:54;100539.09;;;10.39;73.19
10668;BME280;5382;42.136;24.796;2023-03-18T11:39:24;100541.66;;;10.40;72.05
10668;BME280;5382;42.136;24.796;2023-03-18T11:41:53;100536.38;;;10.10;71.16
10668;BME280;5382;42.136;24.796;2023-03-18T11:44:26;100530.59;;;10.48;66.29
10668;BME280;5382;42.136;24.796;2023-03-18T11:46:58;100527.56;;;10.54;67.24
10668;BME280;5382;42.136;24.796;2023-03-18T11:49:28;100506.78;;;10.62;68.54
10668;BME280;5382;42.136;24.796;2023-03-18T11:52:05;100535.28;;;10.86;68.01
10668;BME280;5382;42.136;24.796;2023-03-18T11:57:44;100522.13;;;10.99;67.00
10668;BME280;5382;42.136;24.796;2023-03-18T12:00:22;100517.25;;;11.20;62.62
10668;BME280;5382;42.136;24.796;2023-03-18T12:06:04;100525.47;;;11.69;60.69
10668;BME280;5382;42.136;24.796;2023-03-18T12:08:45;100519.84;;;11.88;60.25
10668;BME280;5382;42.136;24.796;2023-03-18T12:11:20;100506.19;;;12.07;61.47
10668;BME280;5382;42.136;24.796;2023-03-18T12:14:00;100514.59;;;12.27;57.66
10668;BME280;5382;42.136;24.796;2023-03-18T12:16:40;100502.78;;;12.43;58.49
10668;BME280;5382;42.136;24.796;2023-03-18T12:19:40;100498.88;;;13.23;56.72
10668;BME280;5382;42.136;24.796;2023-03-18T12:22:36;100486.06;;;14.34;52.40
10668;BME280;5382;42.136;24.796;2023-03-18T12:25:30;100495.03;;;14.33;51.65
10668;BME280;5382;42.136;24.796;2023-03-18T12:28:08;100498.66;;;14.32;49.97
10668;BME280;5382;42.136;24.796;2023-03-18T12:30:48;100493.34;;;14.43;51.30
10668;BME280;5382;42.136;24.796;2023-03-18T12:33:31;100485.28;;;15.22;48.15
10668;BME280;5382;42.136;24.796;2023-03-18T12:36:06;100489.69;;;15.76;47.42
10668;BME280;5382;42.136;24.796;2023-03-18T12:38:53;100487.44;;;16.13;45.74
10668;BME280;5382;42.136;24.796;2023-03-18T12:41:27;100485.66;;;16.03;44.56
10668;BME280;5382;42.136;24.796;2023-03-18T12:44:08;100486.69;;;16.32;44.26
10668;BME280;5382;42.136;24.796;2023-03-18T12:46:43;100475.63;;;16.47;43.82
10668;BME280;5382;42.136;24.796;2023-03-18T12:49:17;100472.50;;;17.22;43.11
10668;BME280;5382;42.136;24.796;2023-03-18T12:51:49;100463.63;;;18.00;40.29
10668;BME280;5382;42.136;24.796;2023-03-18T12:54:20;100453.75;;;18.75;39.67
10668;BME280;5382;42.136;24.796;2023-03-18T12:56:53;100405.00;;;18.34;38.53
10668;BME280;5382;42.136;24.796;2023-03-18T12:59:28;100443.56;;;18.79;38.28
10668;BME280;5382;42.136;24.796;2023-03-18T13:02:17;100442.72;;;19.77;36.32
10668;BME280;5382;42.136;24.796;2023-03-18T13:04:51;100443.13;;;19.91;35.32
10668;BME280;5382;42.136;24.796;2023-03-18T13:07:24;100440.41;;;20.09;35.72
10668;BME280;5382;42.136;24.796;2023-03-18T13:09:59;100435.16;;;20.33;35.06
10668;BME280;5382;42.136;24.796;2023-03-18T13:12:29;100442.84;;;21.13;33.42